createdAt,value
2022-08-31T00:02:18.805Z,12.70
2022-08-31T00:05:04.477Z,11.52
2022-08-31T00:07:48.431Z,12.40
2022-08-31T00:10:36.818Z,11.02
2022-08-31T00:13:21.030Z,11.65
2022-08-31T00:16:05.444Z,12.00
2022-08-31T00:18:52.718Z,10.60
2022-08-31T00:21:39.229Z,10.70
2022-08-31T00:24:23.311Z,10.55
2022-08-31T00:27:07.273Z,11.23
2022-08-31T00:29:51.239Z,8.73
2022-08-31T00:32:35.713Z,8.05
2022-08-31T00:35:19.925Z,7.25
2022-08-31T00:38:05.558Z,6.90
2022-08-31T00:40:49.903Z,7.10
2022-08-31T00:43:40.730Z,5.97
2022-08-31T00:46:28.269Z,6.60
2022-08-31T00:49:16.613Z,8.57
2022-08-31T00:52:05.049Z,9.27
2022-08-31T00:54:54.285Z,8.18
2022-08-31T00:57:42.641Z,8.43
2022-08-31T01:00:29.056Z,9.68
2022-08-31T01:03:13.570Z,8.82
2022-08-31T01:05:57.560Z,8.85
2022-08-31T01:08:42.111Z,13.05
2022-08-31T01:11:28.008Z,13.20
2022-08-31T01:14:12.688Z,12.45
2022-08-31T01:16:57.456Z,14.25
2022-08-31T01:19:46.711Z,13.93
2022-08-31T01:22:37.564Z,14.18
2022-08-31T01:25:23.000Z,14.27
2022-08-31T01:28:09.754Z,14.50
2022-08-31T01:31:07.910Z,16.55
2022-08-31T01:33:52.221Z,17.73
2022-08-31T01:36:38.325Z,17.85
2022-08-31T01:39:22.345Z,15.57
2022-08-31T01:42:07.825Z,14.02
2022-08-31T01:44:51.741Z,12.75
2022-08-31T01:47:36.627Z,11.25
2022-08-31T01:50:20.820Z,10.93
2022-08-31T01:53:05.218Z,10.05
2022-08-31T01:55:49.153Z,9.35
2022-08-31T01:58:34.615Z,10.15
2022-08-31T02:01:44.563Z,10.90
2022-08-31T02:04:30.129Z,11.25
2022-08-31T02:07:13.998Z,13.65
2022-08-31T02:09:57.875Z,16.67
2022-08-31T02:12:42.003Z,15.50
2022-08-31T02:15:27.657Z,11.20
2022-08-31T02:18:12.156Z,10.70
2022-08-31T02:20:56.810Z,10.10
2022-08-31T02:23:40.913Z,9.70
2022-08-31T02:26:25.226Z,11.88
2022-08-31T02:29:09.503Z,10.20
2022-08-31T02:31:54.778Z,9.35
2022-08-31T02:34:41.054Z,9.23
2022-08-31T02:37:25.656Z,8.43
2022-08-31T02:40:13.325Z,9.45
2022-08-31T02:42:58.996Z,10.45
2022-08-31T02:45:43.832Z,11.63
2022-08-31T02:48:40.671Z,9.38
2022-08-31T02:51:28.015Z,8.00
2022-08-31T02:54:13.891Z,8.05
2022-08-31T02:56:58.047Z,9.38
2022-08-31T02:59:41.994Z,10.05
2022-08-31T03:02:31.742Z,10.98
2022-08-31T03:05:18.661Z,9.05
2022-08-31T03:08:02.545Z,8.93
2022-08-31T03:10:46.596Z,8.50
2022-08-31T03:13:30.496Z,7.63
2022-08-31T03:16:16.413Z,8.68
2022-08-31T03:19:00.383Z,7.53
2022-08-31T03:21:47.254Z,7.18
2022-08-31T03:24:31.489Z,7.45
2022-08-31T03:27:16.086Z,7.80
2022-08-31T03:30:01.183Z,8.65
2022-08-31T03:32:50.360Z,9.05
2022-08-31T03:35:36.819Z,9.10
2022-08-31T03:38:22.192Z,9.57
2022-08-31T03:41:06.892Z,9.00
2022-08-31T03:43:53.017Z,8.48
2022-08-31T03:46:37.789Z,8.35
2022-08-31T03:49:22.029Z,8.90
2022-08-31T03:52:25.331Z,8.45
2022-08-31T03:55:18.971Z,8.65
2022-08-31T03:58:02.913Z,8.15
2022-08-31T04:00:47.640Z,7.82
2022-08-31T04:03:51.850Z,11.90
2022-08-31T04:07:02.001Z,12.63
2022-08-31T04:10:04.380Z,14.05
2022-08-31T04:13:16.311Z,13.18
2022-08-31T04:16:26.751Z,15.07
2022-08-31T04:19:36.940Z,14.65
2022-08-31T04:22:39.422Z,14.00
2022-08-31T04:25:43.300Z,12.15
2022-08-31T04:28:29.050Z,9.77
2022-08-31T04:31:13.053Z,9.68
2022-08-31T04:34:00.271Z,10.90
2022-08-31T04:36:45.544Z,12.82
2022-08-31T04:39:32.781Z,10.52
2022-08-31T04:42:16.781Z,8.10
2022-08-31T04:45:02.128Z,10.50
2022-08-31T04:47:47.061Z,10.82
2022-08-31T04:50:31.268Z,15.50
2022-08-31T04:53:25.313Z,13.18
2022-08-31T04:56:14.531Z,12.95
2022-08-31T04:59:01.727Z,13.05
2022-08-31T05:01:48.991Z,13.68
2022-08-31T05:04:55.999Z,14.10
2022-08-31T05:07:40.169Z,14.02
2022-08-31T05:10:24.901Z,11.80
2022-08-31T05:13:09.132Z,8.45
2022-08-31T05:15:55.238Z,9.63
2022-08-31T05:18:42.685Z,13.05
2022-08-31T05:21:29.575Z,10.48
2022-08-31T05:24:16.002Z,6.90
2022-08-31T05:27:01.417Z,6.90
2022-08-31T05:29:45.413Z,7.28
2022-08-31T05:32:48.668Z,8.00
2022-08-31T05:35:36.395Z,8.57
2022-08-31T05:38:20.550Z,8.80
2022-08-31T05:41:06.232Z,10.00
2022-08-31T05:43:50.718Z,8.73
2022-08-31T05:46:35.336Z,9.93
2022-08-31T05:49:21.357Z,8.48
2022-08-31T05:52:07.924Z,8.75
2022-08-31T05:54:52.857Z,9.00
2022-08-31T05:57:38.342Z,9.00
2022-08-31T06:00:23.199Z,8.02
2022-08-31T06:03:14.667Z,8.48
2022-08-31T06:05:59.025Z,8.65
2022-08-31T06:08:45.084Z,8.23
2022-08-31T06:11:31.163Z,9.32
2022-08-31T06:14:15.106Z,8.98
2022-08-31T06:17:00.271Z,8.95
2022-08-31T06:19:44.283Z,7.97
2022-08-31T06:22:29.349Z,7.05
2022-08-31T06:25:19.492Z,8.07
2022-08-31T06:28:05.740Z,7.50
2022-08-31T06:30:55.298Z,8.73
2022-08-31T06:33:42.028Z,7.35
2022-08-31T06:36:34.350Z,8.55
2022-08-31T06:39:45.189Z,8.05
2022-08-31T06:42:33.161Z,7.55
2022-08-31T06:45:20.024Z,8.18
2022-08-31T06:48:13.719Z,7.78
2022-08-31T06:50:59.681Z,8.70
2022-08-31T06:53:45.140Z,7.63
2022-08-31T06:56:59.520Z,7.20
2022-08-31T07:00:03.525Z,7.93
2022-08-31T07:03:24.108Z,7.82
2022-08-31T07:06:11.663Z,7.75
2022-08-31T07:08:59.384Z,7.68
2022-08-31T07:11:46.477Z,6.65
2022-08-31T07:14:30.371Z,6.57
2022-08-31T07:17:16.659Z,6.57
2022-08-31T07:20:00.688Z,6.45
2022-08-31T07:22:44.640Z,6.75
2022-08-31T07:25:48.784Z,5.97
2022-08-31T07:28:33.987Z,6.88
2022-08-31T07:31:17.911Z,7.30
2022-08-31T07:34:07.263Z,8.65
2022-08-31T07:37:19.460Z,8.00
2022-08-31T07:40:21.926Z,8.40
2022-08-31T07:43:05.932Z,6.25
2022-08-31T07:45:52.215Z,6.55
2022-08-31T07:48:41.442Z,8.90
2022-08-31T07:51:50.297Z,9.13
2022-08-31T07:55:09.437Z,7.20
2022-08-31T07:58:17.474Z,8.35
2022-08-31T08:01:04.294Z,6.97
2022-08-31T08:03:48.274Z,6.55
2022-08-31T08:06:52.181Z,7.57
2022-08-31T08:09:55.720Z,6.93
2022-08-31T08:13:05.253Z,6.03
2022-08-31T08:16:06.607Z,5.10
2022-08-31T08:19:05.506Z,6.10
2022-08-31T08:21:50.011Z,5.93
2022-08-31T08:24:42.490Z,6.13
2022-08-31T08:27:46.456Z,5.63
2022-08-31T08:31:01.589Z,5.85
2022-08-31T08:33:48.023Z,5.75
2022-08-31T08:36:35.892Z,6.03
2022-08-31T08:39:20.947Z,6.05
2022-08-31T08:42:32.610Z,6.07
2022-08-31T08:45:16.872Z,6.57
2022-08-31T08:48:02.221Z,5.75
2022-08-31T08:50:47.282Z,7.78
2022-08-31T08:53:43.837Z,7.57
2022-08-31T08:56:47.211Z,6.13
2022-08-31T08:59:35.922Z,5.85
2022-08-31T09:02:24.261Z,6.40
2022-08-31T09:05:41.739Z,7.03
2022-08-31T09:09:08.526Z,5.40
2022-08-31T09:12:14.794Z,6.28
2022-08-31T09:15:28.411Z,5.05
2022-08-31T09:18:29.100Z,4.93
2022-08-31T09:21:22.775Z,5.38
2022-08-31T09:24:12.972Z,4.90
2022-08-31T09:27:46.865Z,6.20
2022-08-31T09:30:41.497Z,5.80
2022-08-31T09:33:27.697Z,5.07
2022-08-31T09:36:16.992Z,4.97
2022-08-31T09:39:16.199Z,5.28
2022-08-31T09:42:20.136Z,4.57
2022-08-31T09:45:11.780Z,5.28
2022-08-31T09:48:01.463Z,6.50
2022-08-31T09:50:47.299Z,5.25
2022-08-31T09:53:48.780Z,6.05
2022-08-31T09:56:32.668Z,4.65
2022-08-31T09:59:31.502Z,5.43
2022-08-31T10:02:38.172Z,5.28
2022-08-31T10:05:37.044Z,4.35
2022-08-31T10:08:41.171Z,5.43
2022-08-31T10:11:28.239Z,5.55
2022-08-31T10:14:22.990Z,4.90
2022-08-31T10:17:13.179Z,5.05
2022-08-31T10:20:05.797Z,4.65
2022-08-31T10:22:57.823Z,4.30
2022-08-31T10:25:46.669Z,4.80
2022-08-31T10:28:37.430Z,4.75
2022-08-31T10:31:30.224Z,5.20
2022-08-31T10:34:36.459Z,5.00
2022-08-31T10:37:25.311Z,4.72
2022-08-31T10:40:16.291Z,4.72
2022-08-31T10:43:11.613Z,4.80
2022-08-31T10:45:55.597Z,4.80
2022-08-31T10:48:41.182Z,5.53
2022-08-31T10:51:34.066Z,4.43
2022-08-31T10:54:32.248Z,5.03
2022-08-31T10:57:37.386Z,5.35
2022-08-31T11:00:41.087Z,4.97
2022-08-31T11:03:42.410Z,4.72
2022-08-31T11:06:34.315Z,4.55
2022-08-31T11:09:23.326Z,5.13
2022-08-31T11:12:11.407Z,5.18
2022-08-31T11:15:24.169Z,5.55
2022-08-31T11:18:41.145Z,5.03
2022-08-31T11:21:54.955Z,4.93
2022-08-31T11:25:20.870Z,5.65
2022-08-31T11:28:11.466Z,6.07
2022-08-31T11:30:57.380Z,5.75
2022-08-31T11:34:14.211Z,5.57
2022-08-31T11:36:55.696Z,5.38
2022-08-31T11:39:58.024Z,5.97
2022-08-31T11:43:01.220Z,5.63
2022-08-31T11:45:46.562Z,5.43
2022-08-31T11:49:02.327Z,5.38
2022-08-31T11:51:48.171Z,5.63
2022-08-31T11:55:08.056Z,5.35
2022-08-31T11:58:20.678Z,5.53
2022-08-31T12:01:34.281Z,4.82
2022-08-31T12:05:00.459Z,5.05
2022-08-31T12:07:48.659Z,4.55
2022-08-31T12:10:41.919Z,4.80
2022-08-31T12:13:49.878Z,5.10
2022-08-31T12:16:47.456Z,5.57
2022-08-31T12:20:02.741Z,5.05
2022-08-31T12:23:32.096Z,5.38
2022-08-31T12:26:43.045Z,4.72
2022-08-31T12:29:31.360Z,5.43
2022-08-31T12:32:23.573Z,5.20
2022-08-31T12:35:16.936Z,5.18
2022-08-31T12:38:04.744Z,5.57
2022-08-31T12:40:51.575Z,5.45
2022-08-31T12:43:40.243Z,5.30
2022-08-31T12:46:40.956Z,4.72
2022-08-31T12:49:49.377Z,5.03
2022-08-31T12:52:48.172Z,4.75
2022-08-31T12:55:43.925Z,5.25
2022-08-31T12:58:56.525Z,5.20
2022-08-31T13:01:43.317Z,5.20
2022-08-31T13:04:28.939Z,5.25
2022-08-31T13:07:21.930Z,5.03
2022-08-31T13:10:09.733Z,5.30
2022-08-31T13:12:58.990Z,5.00
2022-08-31T13:15:45.009Z,5.63
2022-08-31T13:18:31.082Z,5.20
2022-08-31T13:21:22.052Z,5.75
2022-08-31T13:24:08.506Z,5.57
2022-08-31T13:27:05.459Z,5.50
2022-08-31T13:29:52.919Z,5.43
2022-08-31T13:32:36.912Z,5.70
2022-08-31T13:35:23.121Z,5.20
2022-08-31T13:38:07.929Z,5.78
2022-08-31T13:40:53.285Z,5.28
2022-08-31T13:43:38.151Z,5.93
2022-08-31T13:46:37.934Z,5.22
2022-08-31T13:49:35.639Z,5.55
2022-08-31T13:52:25.098Z,5.82
2022-08-31T13:55:11.818Z,6.00
2022-08-31T13:57:59.837Z,5.72
2022-08-31T14:00:44.842Z,5.95
2022-08-31T14:03:41.093Z,5.93
2022-08-31T14:06:27.295Z,5.63
2022-08-31T14:09:17.195Z,5.60
2022-08-31T14:12:05.505Z,5.38
2022-08-31T14:14:49.527Z,6.82
2022-08-31T14:17:34.208Z,5.47
2022-08-31T14:20:38.430Z,5.18
2022-08-31T14:23:31.931Z,6.18
2022-08-31T14:26:17.695Z,5.93
2022-08-31T14:29:10.511Z,5.68
2022-08-31T14:31:57.609Z,6.38
2022-08-31T14:34:48.790Z,6.18
2022-08-31T14:37:34.070Z,9.73
2022-08-31T14:40:17.989Z,6.35
2022-08-31T14:43:01.939Z,8.63
2022-08-31T14:45:45.936Z,7.65
2022-08-31T14:48:29.785Z,6.70
2022-08-31T14:51:13.668Z,5.68
2022-08-31T14:53:59.485Z,5.95
2022-08-31T14:56:48.075Z,5.35
2022-08-31T14:59:34.653Z,5.75
2022-08-31T15:02:21.517Z,7.35
2022-08-31T15:05:09.525Z,6.30
2022-08-31T15:07:54.867Z,6.57
2022-08-31T15:10:41.273Z,6.43
2022-08-31T15:13:26.896Z,6.00
2022-08-31T15:16:14.507Z,6.65
2022-08-31T15:18:58.535Z,6.25
2022-08-31T15:21:52.837Z,5.97
2022-08-31T15:24:46.670Z,5.80
2022-08-31T15:27:32.012Z,6.70
2022-08-31T15:30:19.904Z,5.82
2022-08-31T15:33:04.818Z,6.88
2022-08-31T15:35:48.776Z,6.32
2022-08-31T15:38:32.705Z,5.90
2022-08-31T15:41:17.093Z,6.22
2022-08-31T15:44:10.474Z,6.35
2022-08-31T15:47:11.833Z,6.78
2022-08-31T15:49:57.709Z,6.07
2022-08-31T15:52:51.913Z,6.82
2022-08-31T15:55:38.922Z,6.53
2022-08-31T15:58:25.252Z,6.15
2022-08-31T16:01:16.317Z,6.75
2022-08-31T16:04:00.443Z,6.93
2022-08-31T16:06:44.360Z,6.93
2022-08-31T16:09:28.802Z,6.72
2022-08-31T16:12:13.930Z,6.53
2022-08-31T16:14:57.802Z,6.30
2022-08-31T16:17:43.534Z,6.18
2022-08-31T16:20:29.422Z,6.60
2022-08-31T16:23:13.260Z,6.53
2022-08-31T16:25:57.395Z,6.80
2022-08-31T16:28:41.305Z,7.28
2022-08-31T16:31:25.772Z,6.68
2022-08-31T16:34:11.590Z,7.00
2022-08-31T16:36:57.176Z,6.72
2022-08-31T16:39:42.663Z,8.02
2022-08-31T16:42:26.702Z,7.40
2022-08-31T16:45:11.637Z,10.60
2022-08-31T16:48:15.830Z,9.13
2022-08-31T16:51:02.677Z,8.13
2022-08-31T16:53:48.142Z,7.95
2022-08-31T16:56:37.040Z,7.28
2022-08-31T16:59:21.070Z,7.05
2022-08-31T17:02:05.101Z,7.10
2022-08-31T17:04:52.450Z,7.13
2022-08-31T17:07:42.815Z,7.03
2022-08-31T17:10:26.783Z,7.63
2022-08-31T17:13:11.316Z,6.75
2022-08-31T17:15:55.183Z,7.80
2022-08-31T17:18:44.277Z,8.32
2022-08-31T17:21:31.713Z,7.90
2022-08-31T17:24:21.640Z,7.70
2022-08-31T17:27:10.114Z,9.30
2022-08-31T17:29:56.371Z,8.93
2022-08-31T17:32:45.187Z,7.55
2022-08-31T17:35:29.613Z,6.68
2022-08-31T17:38:14.613Z,6.88
2022-08-31T17:41:07.689Z,6.80
2022-08-31T17:43:52.105Z,7.30
2022-08-31T17:46:36.587Z,7.32
2022-08-31T17:49:22.795Z,7.00
2022-08-31T17:52:08.523Z,7.35
2022-08-31T17:54:52.481Z,6.57
2022-08-31T17:57:37.840Z,7.55
2022-08-31T18:00:22.000Z,7.82
2022-08-31T18:03:05.975Z,7.88
2022-08-31T18:05:50.384Z,7.55
2022-08-31T18:08:37.668Z,8.02
2022-08-31T18:11:22.242Z,8.43
2022-08-31T18:14:07.596Z,8.48
2022-08-31T18:16:53.294Z,8.40
2022-08-31T18:19:38.969Z,8.05
2022-08-31T18:22:22.951Z,8.73
2022-08-31T18:25:07.691Z,9.00
2022-08-31T18:27:51.502Z,7.97
2022-08-31T18:30:41.437Z,7.45
2022-08-31T18:33:25.785Z,7.82
2022-08-31T18:36:10.641Z,7.70
2022-08-31T18:38:56.092Z,8.70
2022-08-31T18:41:57.455Z,7.55
2022-08-31T18:44:58.961Z,7.95
2022-08-31T18:48:01.587Z,6.97
2022-08-31T18:50:51.180Z,7.53
2022-08-31T18:53:36.139Z,6.97
2022-08-31T18:56:20.053Z,6.50
2022-08-31T18:59:04.101Z,6.47
2022-08-31T19:01:48.574Z,6.13
2022-08-31T19:04:35.291Z,6.78
2022-08-31T19:07:20.028Z,6.28
2022-08-31T19:10:03.899Z,6.93
2022-08-31T19:12:47.895Z,6.30
2022-08-31T19:15:35.824Z,6.80
2022-08-31T19:18:20.273Z,7.22
2022-08-31T19:21:17.344Z,7.50
2022-08-31T19:24:05.089Z,6.82
2022-08-31T19:26:51.929Z,6.10
2022-08-31T19:29:36.393Z,7.57
2022-08-31T19:32:21.612Z,7.22
2022-08-31T19:35:06.353Z,8.05
2022-08-31T19:37:51.962Z,7.18
2022-08-31T19:40:38.865Z,7.50
2022-08-31T19:46:27.157Z,7.45
2022-08-31T19:49:12.568Z,7.80
2022-08-31T19:52:00.960Z,7.82
2022-08-31T19:54:46.558Z,7.07
2022-08-31T19:57:32.391Z,7.70
2022-08-31T20:00:17.378Z,6.82
2022-08-31T20:03:03.575Z,7.55
2022-08-31T20:05:47.810Z,6.72
2022-08-31T20:08:31.623Z,7.18
2022-08-31T20:11:21.769Z,6.68
2022-08-31T20:14:06.803Z,6.75
2022-08-31T20:16:51.368Z,7.05
2022-08-31T20:19:37.292Z,6.10
2022-08-31T20:22:23.623Z,6.75
2022-08-31T20:25:18.402Z,6.43
2022-08-31T20:28:07.164Z,6.82
2022-08-31T20:30:51.735Z,7.13
2022-08-31T20:33:36.318Z,7.18
2022-08-31T20:36:23.106Z,6.65
2022-08-31T20:39:08.923Z,6.95
2022-08-31T20:41:56.219Z,6.93
2022-08-31T20:44:43.540Z,6.50
2022-08-31T20:47:50.117Z,7.03
2022-08-31T20:50:35.320Z,6.75
2022-08-31T20:53:38.830Z,8.18
2022-08-31T20:56:26.260Z,8.55
2022-08-31T20:59:10.679Z,6.97
2022-08-31T21:01:59.660Z,6.78
2022-08-31T21:04:45.853Z,6.57
2022-08-31T21:07:29.857Z,5.70
2022-08-31T21:10:13.676Z,6.85
2022-08-31T21:13:00.120Z,6.90
2022-08-31T21:15:46.608Z,7.07
2022-08-31T21:18:34.147Z,6.45
2022-08-31T21:21:18.501Z,7.03
2022-08-31T21:24:02.322Z,6.90
2022-08-31T21:26:47.002Z,7.57
2022-08-31T21:29:31.135Z,7.38
2022-08-31T21:32:16.681Z,6.65
2022-08-31T21:35:02.060Z,8.02
2022-08-31T21:37:47.067Z,7.38
2022-08-31T21:40:32.055Z,7.65
2022-08-31T21:43:16.039Z,7.50
2022-08-31T21:46:03.779Z,7.95
2022-08-31T21:48:47.704Z,7.70
2022-08-31T21:51:35.336Z,7.97
2022-08-31T21:54:22.141Z,8.35
2022-08-31T21:57:06.103Z,7.90
2022-08-31T21:59:50.362Z,7.32
2022-08-31T22:02:34.298Z,8.65
2022-08-31T22:05:18.404Z,7.88
2022-08-31T22:08:04.131Z,8.00
2022-08-31T22:10:49.062Z,8.70
2022-08-31T22:13:37.101Z,8.98
2022-08-31T22:16:21.149Z,7.88
2022-08-31T22:19:12.329Z,8.10
2022-08-31T22:21:59.203Z,8.30
2022-08-31T22:24:44.971Z,8.57
2022-08-31T22:27:28.940Z,8.68
2022-08-31T22:30:14.257Z,8.65
2022-08-31T22:32:58.568Z,9.20
2022-08-31T22:35:42.511Z,8.55
2022-08-31T22:38:26.368Z,9.82
2022-08-31T22:41:12.804Z,9.32
2022-08-31T22:43:57.398Z,9.10
2022-08-31T22:46:42.562Z,9.65
2022-08-31T22:49:27.192Z,9.55
2022-08-31T22:52:14.119Z,9.43
2022-08-31T22:55:00.942Z,9.43
2022-08-31T22:57:46.144Z,9.60
2022-08-31T23:00:30.235Z,9.10
2022-08-31T23:03:15.246Z,10.18
2022-08-31T23:05:59.192Z,9.25
2022-08-31T23:08:43.643Z,9.27
2022-08-31T23:11:28.143Z,9.82
2022-08-31T23:14:13.670Z,8.88
2022-08-31T23:17:00.697Z,9.93
2022-08-31T23:19:46.741Z,9.93
2022-08-31T23:22:30.818Z,9.55
2022-08-31T23:25:17.339Z,9.27
2022-08-31T23:28:01.504Z,9.55
2022-08-31T23:30:49.505Z,9.90
2022-08-31T23:33:33.562Z,9.90
2022-08-31T23:36:18.122Z,10.38
2022-08-31T23:39:03.952Z,11.02
2022-08-31T23:41:48.303Z,9.90
2022-08-31T23:44:33.556Z,10.73
2022-08-31T23:47:21.413Z,10.02
2022-08-31T23:50:07.774Z,9.85
2022-08-31T23:52:53.310Z,11.10
2022-08-31T23:55:37.184Z,10.85
2022-08-31T23:58:21.156Z,10.38
